Time;durP1;ratioP1;P1;durP2;ratioP2;P2;SDS_P1;SDS_P2;PMS_P1;PMS_P2;Temp;Humidity;BMP_temperature;BMP_pressure;BME280_temperature;BME280_humidity;BME280_pressure;Samples;Min_cycle;Max_cycle;Signal;HPM_P1;HPM_P2
2023/12/04 06:00:17;;;;;;;17.63;15.90;;;;;;;;;;1748502;28;20406;-82
2023/12/04 06:01:08;;;;;;;18.63;16.92;;;;;;;;;;1748673;28;20441;-83
2023/12/04 06:02:01;;;;;;;20.95;18.95;;;;;;;;;;1746485;28;20208;-81
2023/12/04 06:02:52;;;;;;;21.20;19.20;;;;;;;;;;1744423;28;20207;-81
2023/12/04 06:03:44;;;;;;;20.83;18.88;;;;;;;;;;1740797;28;20222;-81
2023/12/04 06:04:35;;;;;;;21.40;19.38;;;;;;;;;;1747200;28;20199;-81
2023/12/04 06:05:26;;;;;;;20.77;18.88;;;;;;;;;;1743013;28;20253;-81
2023/12/04 06:06:18;;;;;;;19.17;17.42;;;;;;;;;;1749629;28;20281;-82
2023/12/04 06:07:09;;;;;;;20.45;18.55;;;;;;;;;;1748395;28;20210;-80
2023/12/04 06:08:00;;;;;;;20.15;18.35;;;;;;;;;;1743232;28;20318;-78
2023/12/04 06:08:52;;;;;;;19.88;18.10;;;;;;;;;;1741697;28;20195;-79
2023/12/04 06:09:43;;;;;;;19.52;17.83;;;;;;;;;;1745710;28;20194;-81
2023/12/04 06:10:35;;;;;;;19.80;18.00;;;;;;;;;;1745535;28;20248;-80
2023/12/04 06:11:27;;;;;;;19.48;17.70;;;;;;;;;;1744300;28;20200;-80
2023/12/04 06:12:18;;;;;;;19.50;17.77;;;;;;;;;;1741403;28;20195;-79
2023/12/04 06:13:10;;;;;;;18.05;16.42;;;;;;;;;;1741371;28;20210;-80
2023/12/04 06:14:01;;;;;;;18.08;16.38;;;;;;;;;;1742035;28;20210;-79
2023/12/04 06:14:53;;;;;;;18.95;17.25;;;;;;;;;;1741404;28;20204;-79
2023/12/04 06:15:45;;;;;;;18.98;17.27;;;;;;;;;;1741145;28;20200;-79
2023/12/04 06:16:36;;;;;;;18.50;16.77;;;;;;;;;;1743551;28;20211;-80
2023/12/04 06:17:28;;;;;;;19.27;17.58;;;;;;;;;;1743915;28;20211;-80
2023/12/04 06:18:20;;;;;;;17.92;16.20;;;;;;;;;;1742370;28;20203;-79
2023/12/04 06:19:12;;;;;;;19.15;17.55;;;;;;;;;;1742814;28;20207;-79
2023/12/04 06:20:04;;;;;;;18.58;16.85;;;;;;;;;;1741950;28;20203;-80
2023/12/04 06:20:57;;;;;;;17.88;16.38;;;;;;;;;;1744932;28;20198;-81
2023/12/04 06:21:49;;;;;;;18.38;16.77;;;;;;;;;;1744456;28;20277;-80
2023/12/04 06:22:40;;;;;;;19.05;17.25;;;;;;;;;;1748290;28;20210;-79
2023/12/04 06:23:32;;;;;;;17.95;16.27;;;;;;;;;;1741282;28;20203;-80
2023/12/04 06:24:24;;;;;;;18.65;16.83;;;;;;;;;;1746804;28;20278;-80
2023/12/04 06:25:16;;;;;;;17.35;15.85;;;;;;;;;;1742375;28;20286;-80
2023/12/04 06:26:09;;;;;;;18.10;16.35;;;;;;;;;;1740288;28;20199;-82
2023/12/04 06:27:00;;;;;;;17.90;16.20;;;;;;;;;;1741501;28;20280;-79
2023/12/04 06:27:51;;;;;;;17.80;16.00;;;;;;;;;;1741170;28;20648;-79
2023/12/04 06:28:44;;;;;;;17.98;16.38;;;;;;;;;;1741405;28;20703;-79
2023/12/04 06:29:35;;;;;;;19.02;17.10;;;;;;;;;;1741400;28;20286;-79
2023/12/04 06:30:27;;;;;;;20.30;18.50;;;;;;;;;;1735952;28;20202;-79
2023/12/04 06:31:20;;;;;;;18.98;17.27;;;;;;;;;;1739659;28;20199;-79
2023/12/04 06:32:12;;;;;;;19.42;17.67;;;;;;;;;;1740996;28;20577;-79
2023/12/04 06:33:04;;;;;;;19.05;17.38;;;;;;;;;;1741780;28;20253;-78
2023/12/04 06:33:56;;;;;;;18.90;17.23;;;;;;;;;;1742243;28;20214;-78
2023/12/04 06:34:47;;;;;;;17.17;15.68;;;;;;;;;;1742035;28;20219;-78
2023/12/04 06:35:39;;;;;;;18.13;16.52;;;;;;;;;;1742139;28;20188;-78
2023/12/04 06:36:32;;;;;;;17.73;16.13;;;;;;;;;;1741715;28;20211;-78
2023/12/04 06:37:23;;;;;;;16.50;15.00;;;;;;;;;;1742677;28;20191;-79
2023/12/04 06:38:17;;;;;;;15.50;14.20;;;;;;;;;;1742843;28;20207;-78
2023/12/04 06:39:10;;;;;;;15.70;14.30;;;;;;;;;;1744225;28;20203;-79
2023/12/04 06:40:02;;;;;;;16.00;14.57;;;;;;;;;;1742865;28;20203;-78
2023/12/04 06:40:54;;;;;;;15.32;13.95;;;;;;;;;;1742890;28;20199;-78
2023/12/04 06:41:48;;;;;;;15.55;14.15;;;;;;;;;;1743072;28;20207;-78
2023/12/04 06:42:39;;;;;;;15.38;14.07;;;;;;;;;;1742607;28;20203;-77
2023/12/04 06:43:32;;;;;;;16.27;14.88;;;;;;;;;;1742415;28;20265;-76
2023/12/04 06:44:24;;;;;;;15.10;13.70;;;;;;;;;;1741871;28;20203;-76
2023/12/04 06:45:16;;;;;;;17.50;15.80;;;;;;;;;;1741967;28;20257;-76
2023/12/04 06:46:08;;;;;;;15.82;14.35;;;;;;;;;;1741613;28;20215;-75
2023/12/04 06:47:01;;;;;;;15.60;14.10;;;;;;;;;;1742095;28;20198;-76
2023/12/04 06:47:53;;;;;;;16.45;14.85;;;;;;;;;;1741809;28;20231;-76
2023/12/04 06:48:45;;;;;;;16.70;15.10;;;;;;;;;;1742017;28;20383;-76
2023/12/04 06:49:37;;;;;;;16.38;14.90;;;;;;;;;;1741958;28;20333;-76
2023/12/04 06:50:28;;;;;;;15.10;13.70;;;;;;;;;;1741881;28;20214;-77
2023/12/04 06:51:19;;;;;;;14.60;13.30;;;;;;;;;;1742165;28;20565;-77
2023/12/04 06:52:11;;;;;;;16.00;14.45;;;;;;;;;;1741977;28;20567;-77
2023/12/04 06:53:02;;;;;;;15.90;14.50;;;;;;;;;;1742247;28;20199;-76
2023/12/04 06:53:53;;;;;;;17.33;15.73;;;;;;;;;;1742154;28;20203;-77
2023/12/04 06:54:45;;;;;;;17.58;15.98;;;;;;;;;;1742429;28;20199;-77
2023/12/04 06:55:36;;;;;;;16.40;14.88;;;;;;;;;;1742373;28;20203;-76
2023/12/04 06:56:28;;;;;;;16.90;15.20;;;;;;;;;;1741870;28;20210;-77
2023/12/04 06:57:20;;;;;;;16.63;15.07;;;;;;;;;;1742106;28;20770;-76
2023/12/04 06:58:11;;;;;;;17.27;15.48;;;;;;;;;;1741971;28;20749;-77
2023/12/04 06:59:02;;;;;;;16.90;15.20;;;;;;;;;;1742119;28;20579;-77
2023/12/04 06:59:54;;;;;;;17.98;16.17;;;;;;;;;;1742044;28;20288;-77
2023/12/04 07:00:45;;;;;;;16.88;15.35;;;;;;;;;;1742149;28;20211;-75
2023/12/04 07:01:37;;;;;;;16.92;15.35;;;;;;;;;;1742100;28;20260;-76
2023/12/04 07:02:29;;;;;;;17.25;15.60;;;;;;;;;;1742097;28;20199;-77
2023/12/04 07:03:21;;;;;;;17.77;16.08;;;;;;;;;;1742238;28;20214;-78
2023/12/04 07:04:13;;;;;;;18.05;16.45;;;;;;;;;;1742776;28;20655;-77
2023/12/04 07:05:04;;;;;;;17.77;16.15;;;;;;;;;;1742334;28;20268;-77
2023/12/04 07:05:56;;;;;;;21.05;19.05;;;;;;;;;;1742444;28;20202;-77
2023/12/04 07:06:48;;;;;;;20.75;18.95;;;;;;;;;;1741897;28;20218;-78
2023/12/04 07:07:39;;;;;;;19.23;17.50;;;;;;;;;;1742410;28;20227;-76
2023/12/04 07:08:31;;;;;;;19.58;17.67;;;;;;;;;;1742144;28;20195;-77
2023/12/04 07:09:22;;;;;;;19.13;17.30;;;;;;;;;;1741990;28;20264;-77
2023/12/04 07:10:14;;;;;;;17.92;16.23;;;;;;;;;;1741603;28;20690;-76
2023/12/04 07:11:07;;;;;;;19.27;17.42;;;;;;;;;;1734621;28;20292;-77
2023/12/04 07:11:59;;;;;;;19.33;17.60;;;;;;;;;;1734740;28;20723;-77
2023/12/04 07:12:51;;;;;;;17.77;16.17;;;;;;;;;;1740199;28;20738;-77
2023/12/04 07:13:42;;;;;;;17.65;15.95;;;;;;;;;;1741759;28;20777;-78
2023/12/04 07:14:34;;;;;;;18.17;16.48;;;;;;;;;;1741401;28;20202;-76
2023/12/04 07:15:25;;;;;;;17.45;15.85;;;;;;;;;;1741598;28;20611;-77
2023/12/04 07:16:17;;;;;;;17.60;15.98;;;;;;;;;;1741441;28;20238;-77
2023/12/04 07:17:09;;;;;;;16.15;14.65;;;;;;;;;;1742018;28;20202;-77
2023/12/04 07:18:01;;;;;;;15.98;14.48;;;;;;;;;;1741474;28;20703;-77
2023/12/04 07:18:52;;;;;;;16.50;14.85;;;;;;;;;;1741960;28;20207;-77
2023/12/04 07:19:44;;;;;;;15.48;13.98;;;;;;;;;;1741924;28;20199;-77
2023/12/04 07:20:35;;;;;;;15.50;14.00;;;;;;;;;;1741851;28;20694;-77
2023/12/04 07:21:27;;;;;;;16.52;14.98;;;;;;;;;;1742087;28;20195;-77
2023/12/04 07:22:19;;;;;;;15.35;13.85;;;;;;;;;;1742048;28;20672;-77
2023/12/04 07:23:10;;;;;;;16.73;15.13;;;;;;;;;;1742198;28;20199;-78
2023/12/04 07:24:02;;;;;;;17.38;15.68;;;;;;;;;;1742048;28;20346;-77
2023/12/04 07:24:53;;;;;;;17.77;16.10;;;;;;;;;;1742122;28;20214;-77
2023/12/04 07:25:46;;;;;;;19.27;17.27;;;;;;;;;;1742220;28;20207;-77
2023/12/04 07:26:38;;;;;;;16.40;14.85;;;;;;;;;;1741986;28;20200;-77
2023/12/04 07:27:29;;;;;;;16.55;15.05;;;;;;;;;;1741907;28;20221;-77
2023/12/04 07:28:21;;;;;;;16.08;14.50;;;;;;;;;;1742189;28;20198;-77
2023/12/04 07:29:12;;;;;;;15.95;14.38;;;;;;;;;;1742365;28;20582;-78
2023/12/04 07:30:03;;;;;;;16.60;15.00;;;;;;;;;;1741959;28;20207;-77
2023/12/04 07:30:56;;;;;;;16.38;14.65;;;;;;;;;;1742090;28;20194;-77
2023/12/04 07:31:47;;;;;;;16.50;14.90;;;;;;;;;;1742260;28;20211;-77
2023/12/04 07:32:38;;;;;;;20.17;18.08;;;;;;;;;;1742237;28;20282;-78
2023/12/04 07:33:32;;;;;;;19.85;17.75;;;;;;;;;;1742189;28;20207;-76
2023/12/04 07:34:23;;;;;;;19.30;17.30;;;;;;;;;;1742245;28;20206;-77
2023/12/04 07:35:15;;;;;;;18.45;16.55;;;;;;;;;;1741977;28;20199;-77
2023/12/04 07:36:07;;;;;;;14.40;13.00;;;;;;;;;;1741792;28;20207;-76
2023/12/04 07:36:58;;;;;;;16.17;14.57;;;;;;;;;;1742181;28;20264;-77
2023/12/04 07:37:50;;;;;;;17.17;15.57;;;;;;;;;;1741926;28;20215;-77
2023/12/04 07:38:41;;;;;;;16.08;14.52;;;;;;;;;;1742260;28;20207;-77
2023/12/04 07:39:32;;;;;;;16.83;15.20;;;;;;;;;;1741992;28;20256;-77
2023/12/04 07:40:24;;;;;;;15.43;13.93;;;;;;;;;;1742345;28;20664;-77
2023/12/04 07:41:15;;;;;;;15.15;13.65;;;;;;;;;;1741989;28;20565;-77
2023/12/04 07:42:06;;;;;;;15.10;13.70;;;;;;;;;;1742013;28;20199;-77
2023/12/04 07:42:58;;;;;;;15.38;13.88;;;;;;;;;;1742155;28;20194;-77
2023/12/04 07:43:49;;;;;;;15.50;14.00;;;;;;;;;;1741808;28;20214;-77
2023/12/04 07:44:41;;;;;;;15.60;14.10;;;;;;;;;;1741921;28;20194;-77
2023/12/04 07:45:34;;;;;;;14.52;13.13;;;;;;;;;;1742122;28;20659;-77
2023/12/04 07:46:26;;;;;;;16.33;14.73;;;;;;;;;;1741740;28;20203;-77
2023/12/04 07:47:17;;;;;;;15.70;14.20;;;;;;;;;;1735216;28;20257;-77
2023/12/04 07:48:08;;;;;;;15.20;13.70;;;;;;;;;;1737501;28;20235;-77
2023/12/04 07:49:02;;;;;;;16.20;14.60;;;;;;;;;;1742188;28;20234;-77
2023/12/04 07:49:53;;;;;;;14.82;13.45;;;;;;;;;;1742062;28;20195;-77
2023/12/04 07:50:45;;;;;;;15.90;14.40;;;;;;;;;;1741866;28;20659;-77
2023/12/04 07:51:36;;;;;;;15.38;13.85;;;;;;;;;;1741992;28;20251;-77
2023/12/04 07:52:27;;;;;;;14.75;13.35;;;;;;;;;;1742057;28;20207;-77
2023/12/04 07:53:19;;;;;;;14.07;12.75;;;;;;;;;;1742158;28;20281;-77
2023/12/04 07:54:10;;;;;;;15.30;13.85;;;;;;;;;;1742023;28;20552;-77
2023/12/04 07:55:01;;;;;;;16.38;14.77;;;;;;;;;;1742087;28;20595;-77
2023/12/04 07:55:54;;;;;;;15.50;14.00;;;;;;;;;;1741918;28;20206;-77
2023/12/04 07:56:45;;;;;;;16.55;14.85;;;;;;;;;;1741566;28;20211;-77
2023/12/04 07:57:37;;;;;;;13.98;12.73;;;;;;;;;;1741834;28;20238;-77
2023/12/04 07:58:29;;;;;;;15.52;14.02;;;;;;;;;;1741968;28;20239;-77
2023/12/04 07:59:21;;;;;;;13.95;12.65;;;;;;;;;;1742232;28;20278;-78
2023/12/04 08:00:12;;;;;;;15.52;13.98;;;;;;;;;;1741911;28;20218;-77
2023/12/04 08:01:03;;;;;;;15.98;14.38;;;;;;;;;;1741866;28;20191;-77
2023/12/04 08:01:56;;;;;;;15.65;14.15;;;;;;;;;;1741806;28;20199;-77
2023/12/04 08:02:47;;;;;;;15.60;14.15;;;;;;;;;;1742009;28;20202;-77
2023/12/04 08:03:39;;;;;;;15.00;13.57;;;;;;;;;;1741934;28;20195;-77
2023/12/04 08:04:31;;;;;;;15.68;14.18;;;;;;;;;;1742080;28;20675;-78
2023/12/04 08:05:23;;;;;;;17.58;15.88;;;;;;;;;;1742004;28;20207;-77
2023/12/04 08:06:15;;;;;;;17.17;15.48;;;;;;;;;;1741489;28;20582;-77
2023/12/04 08:07:07;;;;;;;18.10;16.30;;;;;;;;;;1742007;28;20249;-77
2023/12/04 08:08:00;;;;;;;16.25;14.65;;;;;;;;;;1741699;28;20328;-77
2023/12/04 08:08:52;;;;;;;14.95;13.45;;;;;;;;;;1742042;28;20206;-77
2023/12/04 08:09:43;;;;;;;15.77;14.27;;;;;;;;;;1741987;28;20207;-77
2023/12/04 08:10:35;;;;;;;16.08;14.57;;;;;;;;;;1741858;28;20199;-77
2023/12/04 08:11:26;;;;;;;15.43;13.90;;;;;;;;;;1742082;28;20199;-77
2023/12/04 08:12:17;;;;;;;15.93;14.20;;;;;;;;;;1741940;28;20608;-78
2023/12/04 08:13:09;;;;;;;15.60;14.10;;;;;;;;;;1741695;28;20615;-77
2023/12/04 08:14:00;;;;;;;15.00;13.40;;;;;;;;;;1741812;28;20576;-77
2023/12/04 08:14:52;;;;;;;13.82;12.48;;;;;;;;;;1741530;28;20257;-77
2023/12/04 08:15:44;;;;;;;15.68;14.18;;;;;;;;;;1741632;28;20195;-77
2023/12/04 08:16:35;;;;;;;14.77;13.40;;;;;;;;;;1741382;28;20210;-76
2023/12/04 08:17:27;;;;;;;13.98;12.57;;;;;;;;;;1741602;28;20214;-76
2023/12/04 08:18:18;;;;;;;13.30;12.00;;;;;;;;;;1741528;28;20203;-77
2023/12/04 08:19:10;;;;;;;13.52;12.23;;;;;;;;;;1741605;28;20202;-77
2023/12/04 08:20:04;;;;;;;13.75;12.43;;;;;;;;;;1741676;28;20206;-77
2023/12/04 08:20:56;;;;;;;13.73;12.45;;;;;;;;;;1741508;28;20663;-77
2023/12/04 08:21:47;;;;;;;14.35;12.93;;;;;;;;;;1741693;28;20586;-77
2023/12/04 08:22:38;;;;;;;13.63;12.32;;;;;;;;;;1741953;28;20725;-76
2023/12/04 08:23:30;;;;;;;14.93;13.50;;;;;;;;;;1734913;28;20199;-77
2023/12/04 08:24:21;;;;;;;13.60;12.20;;;;;;;;;;1735136;28;20239;-76
2023/12/04 08:25:13;;;;;;;14.40;13.05;;;;;;;;;;1740899;28;20580;-77
2023/12/04 08:26:04;;;;;;;14.07;12.77;;;;;;;;;;1741591;28;20207;-77
2023/12/04 08:26:58;;;;;;;14.20;12.80;;;;;;;;;;1741587;28;20199;-77
2023/12/04 08:27:49;;;;;;;12.48;11.27;;;;;;;;;;1741730;28;20227;-77
2023/12/04 08:28:41;;;;;;;14.15;12.75;;;;;;;;;;1741825;28;20206;-77
2023/12/04 08:29:34;;;;;;;13.68;12.38;;;;;;;;;;1742058;28;20256;-78
2023/12/04 08:30:26;;;;;;;12.48;11.18;;;;;;;;;;1741544;28;20192;-77
2023/12/04 08:31:18;;;;;;;12.32;11.13;;;;;;;;;;1742033;28;20302;-77
2023/12/04 08:32:10;;;;;;;11.85;10.75;;;;;;;;;;1741429;28;20202;-77
2023/12/04 08:33:01;;;;;;;13.60;10.98;;;;;;;;;;1741929;28;20203;-77
2023/12/04 08:33:53;;;;;;;11.60;10.50;;;;;;;;;;1741839;28;20612;-77
2023/12/04 08:34:44;;;;;;;12.10;10.85;;;;;;;;;;1741417;28;20202;-77
2023/12/04 08:35:36;;;;;;;13.95;12.55;;;;;;;;;;1741807;28;20563;-77
2023/12/04 08:36:28;;;;;;;12.52;11.27;;;;;;;;;;1741441;28;20214;-78
2023/12/04 08:37:20;;;;;;;12.65;11.32;;;;;;;;;;1741728;28;20577;-77
2023/12/04 08:38:11;;;;;;;12.20;11.00;;;;;;;;;;1741347;28;20211;-77
2023/12/04 08:39:03;;;;;;;12.00;10.80;;;;;;;;;;1741720;28;20215;-77
2023/12/04 08:39:55;;;;;;;12.90;11.70;;;;;;;;;;1741747;28;20559;-77
2023/12/04 08:40:46;;;;;;;12.40;11.20;;;;;;;;;;1741716;28;20195;-77
2023/12/04 08:41:38;;;;;;;12.25;11.05;;;;;;;;;;1741978;28;20199;-77
2023/12/04 08:42:29;;;;;;;11.60;10.50;;;;;;;;;;1741425;28;20203;-77
2023/12/04 08:43:20;;;;;;;13.32;12.00;;;;;;;;;;1741742;28;20897;-77
2023/12/04 08:44:12;;;;;;;14.10;12.80;;;;;;;;;;1741678;28;20199;-77
2023/12/04 08:45:05;;;;;;;14.23;12.73;;;;;;;;;;1741711;28;20585;-77
2023/12/04 08:45:57;;;;;;;16.23;14.63;;;;;;;;;;1741805;28;20206;-77
2023/12/04 08:46:49;;;;;;;18.00;16.20;;;;;;;;;;1741150;28;20187;-77
2023/12/04 08:47:40;;;;;;;17.35;15.55;;;;;;;;;;1741553;28;20199;-77
2023/12/04 08:48:32;;;;;;;17.23;13.82;;;;;;;;;;1741345;28;20218;-77
2023/12/04 08:49:23;;;;;;;14.57;13.15;;;;;;;;;;1741665;28;20207;-77
2023/12/04 08:50:16;;;;;;;15.95;14.48;;;;;;;;;;1741801;28;20226;-77
2023/12/04 08:51:08;;;;;;;14.70;13.20;;;;;;;;;;1741569;28;20747;-77
2023/12/04 08:51:59;;;;;;;14.55;13.15;;;;;;;;;;1741749;28;20663;-77
2023/12/04 08:52:52;;;;;;;13.57;12.27;;;;;;;;;;1741750;28;20222;-77
2023/12/04 08:53:43;;;;;;;12.00;10.88;;;;;;;;;;1741781;28;20206;-77
2023/12/04 08:54:35;;;;;;;11.27;10.27;;;;;;;;;;1741688;28;20199;-77
2023/12/04 08:55:26;;;;;;;11.43;10.32;;;;;;;;;;1741636;28;20203;-77
2023/12/04 08:56:18;;;;;;;11.13;9.98;;;;;;;;;;1741028;28;20194;-77
2023/12/04 08:57:09;;;;;;;10.88;9.80;;;;;;;;;;1741652;28;20214;-77
2023/12/04 08:58:00;;;;;;;10.23;9.32;;;;;;;;;;1741805;28;20280;-77
2023/12/04 08:58:52;;;;;;;10.70;9.60;;;;;;;;;;1741560;28;20199;-77
2023/12/04 08:59:43;;;;;;;11.35;10.18;;;;;;;;;;1741301;28;20206;-77
2023/12/04 09:00:37;;;;;;;11.00;10.00;;;;;;;;;;1741693;28;20203;-77
2023/12/04 09:01:29;;;;;;;11.70;10.57;;;;;;;;;;1741720;28;20231;-77
2023/12/04 09:02:20;;;;;;;10.98;9.98;;;;;;;;;;1741494;28;20202;-77
2023/12/04 09:03:12;;;;;;;11.40;10.30;;;;;;;;;;1741572;28;20226;-77
2023/12/04 09:04:03;;;;;;;10.65;9.55;;;;;;;;;;1741657;28;20207;-77
2023/12/04 09:04:55;;;;;;;9.93;9.02;;;;;;;;;;1741441;28;20678;-77
2023/12/04 09:05:49;;;;;;;10.98;9.88;;;;;;;;;;1741616;28;20642;-77
2023/12/04 09:06:41;;;;;;;11.18;10.00;;;;;;;;;;1741156;28;20567;-77
2023/12/04 09:07:32;;;;;;;11.02;9.93;;;;;;;;;;1741640;28;20210;-77
2023/12/04 09:08:26;;;;;;;12.27;11.07;;;;;;;;;;1741498;28;20293;-77
2023/12/04 09:09:17;;;;;;;10.65;9.57;;;;;;;;;;1741439;28;20690;-77
2023/12/04 09:10:08;;;;;;;11.10;10.00;;;;;;;;;;1741575;28;20199;-77
2023/12/04 09:11:00;;;;;;;11.10;10.00;;;;;;;;;;1741436;28;20195;-77
2023/12/04 09:11:51;;;;;;;10.52;9.52;;;;;;;;;;1741485;28;20203;-77
2023/12/04 09:12:42;;;;;;;11.40;10.23;;;;;;;;;;1741581;28;20202;-77
2023/12/04 09:13:34;;;;;;;11.75;10.55;;;;;;;;;;1741608;28;20203;-77
2023/12/04 09:14:27;;;;;;;12.68;11.48;;;;;;;;;;1741537;28;20218;-77
2023/12/04 09:15:18;;;;;;;12.30;11.13;;;;;;;;;;1741547;28;20203;-77
2023/12/04 09:16:11;;;;;;;12.90;11.63;;;;;;;;;;1740436;28;20206;-77
2023/12/04 09:17:03;;;;;;;12.50;11.27;;;;;;;;;;1741755;28;20214;-77
2023/12/04 09:17:55;;;;;;;12.18;11.05;;;;;;;;;;1741239;28;20226;-77
2023/12/04 09:18:46;;;;;;;12.75;11.30;;;;;;;;;;1741417;28;20203;-77
2023/12/04 09:19:37;;;;;;;12.73;11.43;;;;;;;;;;1741544;28;20206;-77
2023/12/04 09:20:29;;;;;;;12.35;11.15;;;;;;;;;;1741363;28;20272;-77
2023/12/04 09:21:20;;;;;;;12.93;11.55;;;;;;;;;;1741439;28;20222;-77
2023/12/04 09:22:13;;;;;;;12.40;11.18;;;;;;;;;;1741259;28;20664;-77
2023/12/04 09:23:05;;;;;;;13.85;12.45;;;;;;;;;;1741551;28;20203;-77
2023/12/04 09:23:56;;;;;;;12.63;11.32;;;;;;;;;;1741415;28;20218;-77
2023/12/04 09:24:48;;;;;;;12.20;10.90;;;;;;;;;;1741191;28;20206;-77
2023/12/04 09:25:39;;;;;;;11.50;10.30;;;;;;;;;;1741406;28;20210;-77
2023/12/04 09:26:31;;;;;;;12.77;11.43;;;;;;;;;;1741133;28;20198;-78
2023/12/04 09:27:24;;;;;;;12.10;10.90;;;;;;;;;;1741533;28;20630;-77
2023/12/04 09:28:15;;;;;;;12.20;11.00;;;;;;;;;;1741268;28;20207;-76
2023/12/04 09:29:07;;;;;;;12.68;11.40;;;;;;;;;;1741244;28;20207;-77
2023/12/04 09:29:58;;;;;;;13.70;12.30;;;;;;;;;;1741567;28;20222;-77
2023/12/04 09:30:49;;;;;;;12.45;11.25;;;;;;;;;;1741373;28;20218;-76
2023/12/04 09:31:41;;;;;;;13.50;12.13;;;;;;;;;;1741162;28;20656;-77
2023/12/04 09:32:32;;;;;;;14.05;12.65;;;;;;;;;;1741446;28;20598;-77
2023/12/04 09:33:24;;;;;;;14.13;12.73;;;;;;;;;;1741261;28;20707;-77
2023/12/04 09:34:15;;;;;;;13.48;12.10;;;;;;;;;;1741309;28;20583;-77
2023/12/04 09:35:07;;;;;;;14.50;13.07;;;;;;;;;;1741146;28;20195;-77
2023/12/04 09:35:59;;;;;;;14.40;12.93;;;;;;;;;;1741309;28;20659;-77
2023/12/04 09:36:50;;;;;;;14.43;13.00;;;;;;;;;;1741081;28;20576;-77
2023/12/04 09:37:43;;;;;;;15.02;13.52;;;;;;;;;;1741397;28;20191;-76
2023/12/04 09:38:35;;;;;;;13.45;12.05;;;;;;;;;;1741506;28;20256;-77
2023/12/04 09:39:27;;;;;;;13.13;11.82;;;;;;;;;;1741325;28;20203;-77
2023/12/04 09:40:19;;;;;;;13.18;11.88;;;;;;;;;;1741262;28;20202;-77
2023/12/04 09:41:11;;;;;;;14.20;12.70;;;;;;;;;;1741459;28;20214;-77
2023/12/04 09:42:02;;;;;;;14.13;12.75;;;;;;;;;;1741418;28;20198;-77
2023/12/04 09:42:54;;;;;;;12.75;11.52;;;;;;;;;;1741217;28;20199;-77
2023/12/04 09:43:46;;;;;;;14.73;13.35;;;;;;;;;;1741370;28;20215;-77
2023/12/04 09:44:37;;;;;;;15.13;13.40;;;;;;;;;;1741519;28;20194;-77
2023/12/04 09:45:30;;;;;;;14.77;13.35;;;;;;;;;;1741468;28;20210;-77
2023/12/04 09:46:21;;;;;;;14.52;13.02;;;;;;;;;;1741002;28;20462;-77
2023/12/04 09:47:13;;;;;;;14.30;12.45;;;;;;;;;;1741259;28;20617;-77
2023/12/04 09:48:06;;;;;;;16.75;12.50;;;;;;;;;;1740919;28;20215;-77
2023/12/04 09:48:57;;;;;;;13.90;12.27;;;;;;;;;;1741246;28;20695;-77
2023/12/04 09:49:48;;;;;;;13.23;10.98;;;;;;;;;;1741049;28;20659;-77
2023/12/04 09:50:41;;;;;;;12.65;11.35;;;;;;;;;;1741529;28;20206;-77
2023/12/04 09:51:32;;;;;;;13.20;11.85;;;;;;;;;;1741388;28;20345;-77
2023/12/04 09:52:24;;;;;;;12.43;11.18;;;;;;;;;;1741395;28;20203;-76
2023/12/04 09:53:16;;;;;;;12.60;11.35;;;;;;;;;;1741496;28;20205;-76
2023/12/04 09:54:08;;;;;;;13.05;11.27;;;;;;;;;;1741082;28;20211;-77
2023/12/04 09:55:00;;;;;;;12.10;10.80;;;;;;;;;;1741339;28;20199;-76
2023/12/04 09:55:52;;;;;;;11.75;10.55;;;;;;;;;;1741465;28;20207;-77
2023/12/04 09:56:44;;;;;;;12.40;11.05;;;;;;;;;;1741111;28;20866;-77
2023/12/04 09:57:36;;;;;;;11.23;10.20;;;;;;;;;;1741694;28;20748;-77
2023/12/04 09:58:28;;;;;;;11.52;10.43;;;;;;;;;;1741528;28;20207;-77
2023/12/04 09:59:23;;;;;;;11.35;10.25;;;;;;;;;;1741822;28;20663;-77
2023/12/04 10:00:15;;;;;;;11.88;10.68;;;;;;;;;;1741743;28;20225;-77
2023/12/04 10:01:07;;;;;;;11.13;9.98;;;;;;;;;;1741454;28;20211;-77
2023/12/04 10:01:59;;;;;;;11.98;10.77;;;;;;;;;;1741277;28;20663;-77
2023/12/04 10:02:50;;;;;;;12.02;10.73;;;;;;;;;;1741514;28;20579;-77
2023/12/04 10:03:42;;;;;;;11.57;10.48;;;;;;;;;;1741392;28;20713;-77
2023/12/04 10:04:34;;;;;;;12.90;11.55;;;;;;;;;;1741306;28;20199;-77
2023/12/04 10:05:25;;;;;;;13.70;12.13;;;;;;;;;;1741181;28;20280;-76
2023/12/04 10:06:17;;;;;;;13.00;11.60;;;;;;;;;;1740967;28;20207;-77
2023/12/04 10:07:09;;;;;;;13.05;11.75;;;;;;;;;;1741154;28;20211;-77
2023/12/04 10:08:00;;;;;;;13.25;11.85;;;;;;;;;;1741304;28;20234;-77
2023/12/04 10:08:53;;;;;;;13.18;11.43;;;;;;;;;;1741415;28;20699;-77
2023/12/04 10:09:45;;;;;;;12.85;11.45;;;;;;;;;;1741250;28;20218;-77
2023/12/04 10:10:36;;;;;;;12.15;10.95;;;;;;;;;;1741442;28;20663;-77
2023/12/04 10:11:27;;;;;;;12.77;11.48;;;;;;;;;;1742472;28;20233;-77
2023/12/04 10:12:21;;;;;;;14.70;13.20;;;;;;;;;;1742755;28;20203;-77
2023/12/04 10:13:12;;;;;;;13.50;12.10;;;;;;;;;;1742652;28;20260;-77
2023/12/04 10:14:03;;;;;;;14.40;12.90;;;;;;;;;;1742598;28;20203;-77
2023/12/04 10:15:04;;;;;;;12.77;11.48;;;;;;;;;;1743026;28;20227;-77
2023/12/04 10:15:55;;;;;;;11.25;10.15;;;;;;;;;;1735594;28;20210;-77
2023/12/04 10:16:47;;;;;;;12.27;10.65;;;;;;;;;;1735444;28;20200;-77
2023/12/04 10:17:39;;;;;;;12.30;11.05;;;;;;;;;;1741233;28;20199;-77
2023/12/04 10:18:31;;;;;;;13.45;12.05;;;;;;;;;;1742715;28;20785;-77
2023/12/04 10:19:25;;;;;;;14.05;12.52;;;;;;;;;;1742439;28;20211;-77
2023/12/04 10:20:17;;;;;;;12.48;11.20;;;;;;;;;;1742675;28;20214;-77
2023/12/04 10:21:08;;;;;;;14.25;12.77;;;;;;;;;;1742642;28;20230;-77
2023/12/04 10:22:00;;;;;;;13.82;12.43;;;;;;;;;;1742775;28;20242;-77
2023/12/04 10:22:55;;;;;;;14.48;12.60;;;;;;;;;;1742810;28;20206;-77
2023/12/04 10:23:46;;;;;;;13.68;12.20;;;;;;;;;;1742972;28;20671;-77
2023/12/04 10:24:40;;;;;;;12.10;10.80;;;;;;;;;;1742502;28;20199;-76
2023/12/04 10:25:32;;;;;;;13.30;11.90;;;;;;;;;;1742816;28;20210;-77
2023/12/04 10:26:24;;;;;;;11.85;10.68;;;;;;;;;;1742269;28;20253;-77
2023/12/04 10:27:17;;;;;;;13.77;12.48;;;;;;;;;;1742569;28;20207;-77
2023/12/04 10:28:10;;;;;;;12.77;11.48;;;;;;;;;;1742628;28;20276;-77
2023/12/04 10:29:02;;;;;;;12.93;11.60;;;;;;;;;;1742441;28;20223;-77
2023/12/04 10:29:56;;;;;;;15.85;12.15;;;;;;;;;;1742415;28;20205;-77
2023/12/04 10:30:47;;;;;;;13.85;12.45;;;;;;;;;;1742560;28;20329;-77
2023/12/04 10:31:38;;;;;;;14.00;12.50;;;;;;;;;;1742502;28;20203;-77
2023/12/04 10:32:30;;;;;;;13.32;12.02;;;;;;;;;;1742517;28;20678;-77
2023/12/04 10:33:21;;;;;;;13.00;11.80;;;;;;;;;;1742279;28;20692;-77
2023/12/04 10:34:13;;;;;;;12.00;10.80;;;;;;;;;;1742762;28;20256;-77
2023/12/04 10:35:09;;;;;;;12.40;11.10;;;;;;;;;;1742414;28;20235;-77
2023/12/04 10:36:00;;;;;;;13.38;12.07;;;;;;;;;;1742412;28;20206;-77
2023/12/04 10:36:51;;;;;;;12.68;11.40;;;;;;;;;;1735508;28;20204;-77
2023/12/04 10:37:43;;;;;;;13.18;11.43;;;;;;;;;;1735752;28;20207;-77
2023/12/04 10:38:34;;;;;;;12.52;11.32;;;;;;;;;;1741047;28;20210;-77
2023/12/04 10:39:28;;;;;;;13.82;12.43;;;;;;;;;;1742667;28;20210;-77
2023/12/04 10:40:24;;;;;;;13.27;11.98;;;;;;;;;;1742345;28;20207;-77
2023/12/04 10:41:15;;;;;;;14.05;12.65;;;;;;;;;;1742416;28;20260;-78
2023/12/04 10:42:07;;;;;;;12.20;10.90;;;;;;;;;;1742374;28;20199;-77
2023/12/04 10:43:11;;;;;;;12.13;10.93;;;;;;;;;;1742594;28;20207;-77
2023/12/04 10:44:04;;;;;;;12.45;11.23;;;;;;;;;;1742570;28;20205;-77
2023/12/04 10:44:56;;;;;;;12.35;11.15;;;;;;;;;;1742470;28;20203;-77
2023/12/04 10:45:48;;;;;;;12.65;11.43;;;;;;;;;;1742444;28;20203;-77
2023/12/04 10:46:40;;;;;;;12.20;10.98;;;;;;;;;;1742479;28;20210;-77
2023/12/04 10:47:31;;;;;;;12.02;10.82;;;;;;;;;;1742485;28;20215;-77
2023/12/04 10:48:23;;;;;;;12.00;10.70;;;;;;;;;;1742418;28;20563;-77
2023/12/04 10:49:14;;;;;;;12.95;11.07;;;;;;;;;;1742345;28;20226;-77
2023/12/04 10:50:07;;;;;;;13.43;11.10;;;;;;;;;;1741968;28;20199;-77
2023/12/04 10:50:59;;;;;;;11.90;10.57;;;;;;;;;;1742725;28;20776;-76
2023/12/04 10:51:51;;;;;;;12.70;11.40;;;;;;;;;;1742570;28;20210;-77
2023/12/04 10:52:43;;;;;;;12.27;11.07;;;;;;;;;;1742607;28;20664;-77
2023/12/04 10:53:34;;;;;;;12.38;11.00;;;;;;;;;;1742432;28;20214;-77
2023/12/04 10:54:27;;;;;;;12.02;10.73;;;;;;;;;;1742487;28;20619;-77
2023/12/04 10:55:18;;;;;;;12.50;11.25;;;;;;;;;;1742367;28;20881;-77
2023/12/04 10:56:12;;;;;;;12.27;10.70;;;;;;;;;;1742308;28;20381;-77
2023/12/04 10:57:04;;;;;;;11.90;10.70;;;;;;;;;;1742522;28;20210;-77
2023/12/04 10:57:57;;;;;;;11.70;10.50;;;;;;;;;;1742178;28;20219;-77
2023/12/04 10:58:50;;;;;;;11.55;10.43;;;;;;;;;;1742439;28;20203;-77
2023/12/04 10:59:42;;;;;;;11.02;9.93;;;;;;;;;;1742511;28;20241;-77
2023/12/04 11:00:34;;;;;;;13.38;11.75;;;;;;;;;;1742498;28;20203;-77
2023/12/04 11:01:27;;;;;;;12.35;11.15;;;;;;;;;;1742310;28;20203;-77
2023/12/04 11:02:20;;;;;;;17.67;14.10;;;;;;;;;;1742470;28;20203;-77